createdAt,value
2018-06-19T00:01:46.136Z,99.90
2018-06-19T00:13:16.005Z,99.90
2018-06-19T00:15:45.280Z,99.90
2018-06-19T00:18:22.755Z,99.90
2018-06-19T00:20:52.267Z,99.90
2018-06-19T00:23:20.778Z,99.90
2018-06-19T00:25:49.294Z,99.90
2018-06-19T00:28:17.802Z,99.90
2018-06-19T00:30:46.302Z,99.90
2018-06-19T00:33:16.781Z,99.90
2018-06-19T00:38:15.168Z,99.90
2018-06-19T00:43:11.822Z,99.90
2018-06-19T00:45:40.291Z,99.90
2018-06-19T00:48:09.198Z,99.90
2018-06-19T00:50:37.724Z,99.90
2018-06-19T00:53:06.182Z,99.90
2018-06-19T00:55:35.311Z,99.90
2018-06-19T00:58:03.830Z,99.90
2018-06-19T01:00:32.307Z,99.90
2018-06-19T01:03:00.827Z,99.90
2018-06-19T01:05:29.377Z,99.90
2018-06-19T01:07:57.878Z,99.90
2018-06-19T01:10:26.378Z,99.90
2018-06-19T01:12:54.847Z,99.90
2018-06-19T01:15:23.315Z,99.90
2018-06-19T01:20:20.503Z,99.90
2018-06-19T01:22:48.967Z,99.90
2018-06-19T01:25:17.445Z,99.90
2018-06-19T01:27:45.896Z,99.90
2018-06-19T01:31:37.631Z,99.90
2018-06-19T01:34:06.086Z,99.90
2018-06-19T01:36:35.392Z,99.90
2018-06-19T01:39:05.270Z,99.90
2018-06-19T01:41:33.958Z,99.90
2018-06-19T01:44:02.414Z,99.90
2018-06-19T01:46:31.981Z,99.90
2018-06-19T01:49:00.423Z,99.90
2018-06-19T01:51:28.866Z,99.90
2018-06-19T01:53:57.374Z,99.90
2018-06-19T01:56:25.878Z,99.90
2018-06-19T01:58:54.351Z,99.90
2018-06-19T02:01:23.294Z,99.90
2018-06-19T02:03:51.702Z,99.90
2018-06-19T02:06:20.172Z,99.90
2018-06-19T02:08:48.639Z,99.90
2018-06-19T02:11:17.449Z,99.90
2018-06-19T02:13:45.916Z,99.90
2018-06-19T02:22:24.294Z,99.90
2018-06-19T02:24:52.777Z,99.90
2018-06-19T02:27:21.284Z,99.90
2018-06-19T02:29:49.822Z,99.90
2018-06-19T02:32:18.380Z,99.90
2018-06-19T02:34:46.865Z,99.90
2018-06-19T02:37:16.909Z,99.90
2018-06-19T02:39:45.388Z,99.90
2018-06-19T02:42:15.467Z,99.90
2018-06-19T02:47:12.734Z,99.90
2018-06-19T02:49:41.215Z,99.90
2018-06-19T02:52:09.695Z,99.90
2018-06-19T02:54:38.150Z,99.90
2018-06-19T02:57:06.622Z,99.90
2018-06-19T02:59:35.114Z,99.90
2018-06-19T03:02:03.631Z,99.90
2018-06-19T03:04:32.194Z,99.90
2018-06-19T03:07:00.924Z,99.90
2018-06-19T03:09:29.376Z,99.90
2018-06-19T03:11:57.837Z,99.90
2018-06-19T03:14:26.380Z,99.90
2018-06-19T03:16:54.842Z,99.90
2018-06-19T03:19:23.374Z,99.90
2018-06-19T03:21:51.882Z,99.90
2018-06-19T03:24:20.373Z,99.90
2018-06-19T03:26:48.884Z,99.90
2018-06-19T03:29:18.915Z,99.90
2018-06-19T03:31:47.448Z,99.90
2018-06-19T03:34:17.367Z,99.90
2018-06-19T03:36:45.871Z,99.90
2018-06-19T03:48:05.839Z,99.90
2018-06-19T03:50:34.321Z,99.90
2018-06-19T03:53:02.878Z,99.90
2018-06-19T03:55:31.460Z,99.90
2018-06-19T03:58:00.010Z,99.90
2018-06-19T04:00:28.554Z,99.90
2018-06-19T04:02:57.172Z,99.90
2018-06-19T04:07:53.903Z,99.90
2018-06-19T04:10:22.665Z,99.90
2018-06-19T04:12:51.136Z,99.90
2018-06-19T04:15:19.623Z,99.90
2018-06-19T04:17:48.138Z,99.90
2018-06-19T04:20:17.392Z,99.90
2018-06-19T04:22:45.942Z,99.90
2018-06-19T04:31:37.548Z,99.90
2018-06-19T04:34:06.047Z,99.90
2018-06-19T04:36:34.530Z,99.90
2018-06-19T04:39:03.112Z,99.90
2018-06-19T04:41:32.676Z,99.90
2018-06-19T04:44:01.168Z,99.90
2018-06-19T04:46:29.719Z,99.90
2018-06-19T04:48:58.266Z,99.90
2018-06-19T04:51:26.875Z,99.90
2018-06-19T04:53:55.414Z,99.90
2018-06-19T04:56:23.883Z,99.90
2018-06-19T04:58:52.402Z,99.90
2018-06-19T05:01:21.036Z,99.90
2018-06-19T05:03:49.493Z,99.90
2018-06-19T05:06:18.016Z,99.90
2018-06-19T05:08:46.518Z,99.90
2018-06-19T05:17:44.655Z,99.90
2018-06-19T05:20:13.184Z,99.90
2018-06-19T05:22:41.622Z,99.90
2018-06-19T05:25:10.177Z,99.90
2018-06-19T05:27:38.926Z,99.90
2018-06-19T05:30:07.456Z,99.90
2018-06-19T05:32:36.038Z,99.90
2018-06-19T05:35:04.691Z,99.90
2018-06-19T05:37:33.159Z,99.90
2018-06-19T05:40:02.183Z,99.90
2018-06-19T05:42:31.487Z,99.90
2018-06-19T05:45:00.040Z,99.90
2018-06-19T05:47:28.603Z,99.90
2018-06-19T05:49:57.056Z,99.90
2018-06-19T05:52:25.565Z,99.90
2018-06-19T05:54:54.084Z,99.90
2018-06-19T05:57:22.570Z,99.90
2018-06-19T05:59:51.060Z,99.90
2018-06-19T06:02:19.919Z,98.80
2018-06-19T06:04:48.416Z,97.60
2018-06-19T06:09:47.246Z,95.00
2018-06-19T06:12:17.439Z,92.20
2018-06-19T06:14:45.987Z,89.30
2018-06-19T06:23:19.114Z,87.10
2018-06-19T06:25:47.605Z,73.80
2018-06-19T06:34:06.708Z,68.20
2018-06-19T06:36:35.191Z,60.50
2018-06-19T06:39:04.446Z,59.00
2018-06-19T06:41:32.905Z,58.10
2018-06-19T06:44:02.242Z,57.20
2018-06-19T06:46:30.815Z,56.10
2018-06-19T06:53:55.693Z,50.00
2018-06-19T06:56:24.198Z,46.20
2018-06-19T06:58:52.768Z,45.20
2018-06-19T07:01:21.827Z,40.90
2018-06-19T07:03:50.305Z,40.70
2018-06-19T07:06:18.766Z,39.70
2018-06-19T07:08:47.303Z,37.30
2018-06-19T07:11:17.413Z,36.00
2018-06-19T07:13:45.929Z,37.40
2018-06-19T07:22:56.859Z,36.30
2018-06-19T07:25:25.339Z,34.70
2018-06-19T07:27:53.852Z,32.40
2018-06-19T07:30:22.918Z,31.50
2018-06-19T07:32:51.482Z,30.00
2018-06-19T07:35:19.955Z,30.00
2018-06-19T07:37:48.487Z,29.20
2018-06-19T07:40:17.358Z,28.40
2018-06-19T07:42:46.582Z,28.40
2018-06-19T07:45:21.658Z,29.90
2018-06-19T07:47:50.126Z,30.20
2018-06-19T07:50:18.801Z,30.00
2018-06-19T07:52:47.655Z,30.40
2018-06-19T08:00:15.191Z,32.50
2018-06-19T08:02:44.340Z,32.80
2018-06-19T08:05:14.058Z,34.90
2018-06-19T08:07:43.850Z,32.80
2018-06-19T08:10:13.475Z,31.50
2018-06-19T08:12:42.479Z,30.00
2018-06-19T08:15:10.976Z,31.20
2018-06-19T08:17:39.860Z,31.70
2018-06-19T08:20:08.935Z,33.20
2018-06-19T08:22:37.522Z,32.40
2018-06-19T08:25:07.793Z,31.30
2018-06-19T08:27:36.682Z,29.60
2018-06-19T08:30:06.075Z,29.40
2018-06-19T08:32:34.614Z,29.10
2018-06-19T08:35:03.146Z,29.10
2018-06-19T08:37:32.078Z,29.10
2018-06-19T08:40:00.590Z,30.30
2018-06-19T08:42:29.110Z,30.60
2018-06-19T08:44:57.626Z,31.80
2018-06-19T08:47:26.819Z,30.40
2018-06-19T08:49:55.314Z,30.10
2018-06-19T08:52:23.895Z,29.00
2018-06-19T08:54:52.393Z,29.00
2018-06-19T08:57:20.891Z,28.80
2018-06-19T08:59:49.419Z,27.40
2018-06-19T09:02:17.902Z,25.80
2018-06-19T09:04:46.503Z,25.40
2018-06-19T09:13:56.460Z,24.90
2018-06-19T09:18:53.187Z,23.10
2018-06-19T09:21:21.723Z,22.50
2018-06-19T09:23:50.659Z,22.00
2018-06-19T09:26:19.407Z,21.70
2018-06-19T09:28:47.955Z,22.30
2018-06-19T09:31:16.576Z,22.50
2018-06-19T09:33:45.669Z,21.40
2018-06-19T09:36:16.560Z,22.70
2018-06-19T09:38:45.092Z,21.80
2018-06-19T09:41:13.588Z,21.70
2018-06-19T09:43:42.510Z,22.30
2018-06-19T09:46:11.011Z,21.30
2018-06-19T09:48:40.179Z,21.70
2018-06-19T09:51:08.667Z,21.30
2018-06-19T09:53:37.257Z,24.20
2018-06-19T09:56:06.688Z,27.70
2018-06-19T09:58:35.821Z,30.50
2018-06-19T10:01:04.450Z,34.90
2018-06-19T10:03:33.564Z,37.00
2018-06-19T10:06:02.089Z,37.00
2018-06-19T10:08:30.551Z,37.20
2018-06-19T10:10:59.031Z,39.20
2018-06-19T10:13:27.626Z,40.70
2018-06-19T10:15:56.113Z,43.00
2018-06-19T10:18:24.601Z,41.20
2018-06-19T10:20:53.499Z,40.70
2018-06-19T10:23:22.279Z,40.30
2018-06-19T10:25:50.822Z,40.00
2018-06-19T10:28:19.342Z,42.50
2018-06-19T10:30:47.883Z,42.90
2018-06-19T10:33:17.438Z,42.20
2018-06-19T10:35:45.974Z,42.80
2018-06-19T10:44:44.301Z,41.90
2018-06-19T10:47:12.815Z,40.60
2018-06-19T10:49:41.983Z,39.10
2018-06-19T10:52:10.478Z,40.50
2018-06-19T10:54:39.039Z,38.00
2018-06-19T10:57:07.919Z,39.00
2018-06-19T10:59:36.463Z,38.70
2018-06-19T11:02:05.227Z,39.70
2018-06-19T11:04:33.787Z,39.40
2018-06-19T11:07:04.040Z,40.30
2018-06-19T11:09:32.559Z,41.00
2018-06-19T11:14:29.475Z,40.60
2018-06-19T11:16:57.959Z,41.50
2018-06-19T11:19:26.470Z,41.90
2018-06-19T11:21:54.983Z,41.10
2018-06-19T11:24:23.467Z,41.20
2018-06-19T11:26:51.974Z,39.10
2018-06-19T11:29:21.584Z,42.40
2018-06-19T11:31:50.147Z,43.00
2018-06-19T11:34:18.626Z,43.40
2018-06-19T11:36:48.037Z,44.30
2018-06-19T11:50:19.670Z,46.30
2018-06-19T11:52:48.216Z,46.70
2018-06-19T11:55:17.401Z,46.30
2018-06-19T11:57:46.008Z,46.20
2018-06-19T12:10:23.391Z,46.60
2018-06-19T12:12:51.898Z,45.60
2018-06-19T12:15:20.368Z,43.80
2018-06-19T12:17:48.879Z,44.30
2018-06-19T12:20:18.483Z,45.80
2018-06-19T12:22:49.690Z,45.00
2018-06-19T12:25:18.535Z,44.00
2018-06-19T12:27:48.042Z,44.30
2018-06-19T12:30:17.387Z,43.90
2018-06-19T12:32:46.651Z,44.10
2018-06-19T12:45:43.043Z,42.50
2018-06-19T12:48:11.509Z,41.80
2018-06-19T12:51:53.602Z,43.40
2018-06-19T12:54:31.177Z,43.30
2018-06-19T12:56:59.691Z,43.90
2018-06-19T12:59:28.416Z,45.80
2018-06-19T13:01:56.988Z,46.80
2018-06-19T13:04:36.696Z,45.10
2018-06-19T13:07:05.176Z,46.90
2018-06-19T13:09:33.627Z,47.30
2018-06-19T13:12:03.275Z,46.90
2018-06-19T13:14:38.935Z,47.60
2018-06-19T13:17:18.978Z,46.20
2018-06-19T13:19:58.815Z,48.50
2018-06-19T13:24:55.640Z,47.20
2018-06-19T13:27:24.134Z,47.40
2018-06-19T13:30:11.364Z,45.70
2018-06-19T13:32:40.256Z,46.30
2018-06-19T13:35:08.823Z,44.20
2018-06-19T13:37:37.677Z,45.30
2018-06-19T13:41:17.994Z,46.80
2018-06-19T13:43:58.642Z,46.20
2018-06-19T13:46:27.310Z,47.70
2018-06-19T13:48:55.815Z,46.80
2018-06-19T13:51:27.992Z,46.10
2018-06-19T13:53:56.569Z,45.40
2018-06-19T13:57:38.065Z,47.30
2018-06-19T14:00:11.860Z,46.10
2018-06-19T14:02:40.789Z,45.60
2018-06-19T14:05:10.383Z,46.20
2018-06-19T14:08:16.947Z,47.50
2018-06-19T14:10:56.897Z,46.80
2018-06-19T14:13:25.410Z,45.50
2018-06-19T14:15:53.919Z,46.30
2018-06-19T14:18:22.500Z,45.20
2018-06-19T14:20:51.104Z,45.50
2018-06-19T14:23:19.615Z,44.00
2018-06-19T14:25:49.090Z,46.00
2018-06-19T14:28:17.743Z,43.90
2018-06-19T14:30:46.332Z,45.80
2018-06-19T14:51:40.340Z,44.70
2018-06-19T14:54:10.535Z,44.60
2018-06-19T14:56:39.079Z,42.10
2018-06-19T14:59:07.671Z,43.30
2018-06-19T15:01:36.266Z,43.20
2018-06-19T15:04:04.896Z,44.30
2018-06-19T15:06:33.490Z,43.20
2018-06-19T15:09:02.125Z,46.10
2018-06-19T15:11:30.692Z,46.20
2018-06-19T15:13:59.727Z,46.90
2018-06-19T15:16:28.219Z,45.40
2018-06-19T15:18:56.784Z,48.20
2018-06-19T15:21:26.561Z,48.90
2018-06-19T15:23:55.116Z,48.60
2018-06-19T15:26:23.627Z,51.10
2018-06-19T15:28:52.209Z,47.60
2018-06-19T15:31:20.675Z,47.90
2018-06-19T15:33:49.231Z,47.80
2018-06-19T15:36:18.615Z,47.20
2018-06-19T15:38:47.142Z,47.30
2018-06-19T15:41:17.374Z,47.50
2018-06-19T15:43:45.927Z,48.40
2018-06-19T16:02:15.201Z,48.50
2018-06-19T16:04:44.345Z,48.80
2018-06-19T16:07:13.091Z,46.40
2018-06-19T16:09:42.792Z,46.80
2018-06-19T16:12:11.486Z,49.20
2018-06-19T16:14:41.672Z,48.30
2018-06-19T16:17:10.515Z,47.80
2018-06-19T16:19:39.147Z,49.10
2018-06-19T16:22:07.619Z,46.40
2018-06-19T16:24:44.634Z,49.30
2018-06-19T16:34:06.654Z,48.80
2018-06-19T16:36:35.362Z,46.60
2018-06-19T16:39:06.225Z,47.10
2018-06-19T16:41:34.858Z,45.70
2018-06-19T16:44:03.528Z,47.00
2018-06-19T16:46:32.289Z,46.90
2018-06-19T16:49:00.846Z,45.60
2018-06-19T16:51:29.477Z,46.80
2018-06-19T16:53:58.020Z,48.00
2018-06-19T16:56:26.675Z,48.70
2018-06-19T16:58:55.126Z,48.20
2018-06-19T17:01:24.042Z,46.50
2018-06-19T17:03:52.674Z,47.80
2018-06-19T17:06:21.313Z,47.90
2018-06-19T17:11:18.052Z,48.40
2018-06-19T17:13:46.518Z,49.40
2018-06-19T17:22:20.361Z,50.20
2018-06-19T17:24:49.089Z,50.80
2018-06-19T17:27:17.623Z,51.60
2018-06-19T17:29:46.162Z,52.20
2018-06-19T17:41:57.228Z,53.40
2018-06-19T17:44:25.679Z,53.40
2018-06-19T17:46:54.609Z,53.30
2018-06-19T17:49:23.172Z,55.30
2018-06-19T17:51:51.675Z,55.50
2018-06-19T17:54:20.143Z,54.70
2018-06-19T17:56:49.880Z,53.70
2018-06-19T17:59:18.616Z,54.00
2018-06-19T18:01:47.136Z,54.20
2018-06-19T18:04:17.451Z,55.80
2018-06-19T18:06:46.767Z,56.70
2018-06-19T18:27:30.248Z,55.90
2018-06-19T18:29:58.727Z,56.70
2018-06-19T18:32:27.211Z,61.00
2018-06-19T18:34:55.802Z,61.60
2018-06-19T18:37:25.277Z,60.60
2018-06-19T18:39:53.991Z,63.10
2018-06-19T18:42:22.595Z,61.30
2018-06-19T18:44:51.199Z,61.30
2018-06-19T18:47:20.471Z,62.20
2018-06-19T18:49:49.452Z,61.40
2018-06-19T18:52:18.039Z,61.00
2018-06-19T18:54:46.863Z,61.60
2018-06-19T19:08:07.118Z,62.10
2018-06-19T19:10:40.985Z,63.50
2018-06-19T19:13:11.335Z,66.40
2018-06-19T19:15:45.471Z,67.50
2018-06-19T19:28:23.126Z,67.80
2018-06-19T19:34:01.119Z,69.20
2018-06-19T19:39:08.713Z,78.10
2018-06-19T19:41:37.225Z,79.40
2018-06-19T19:44:05.863Z,79.90
2018-06-19T19:46:39.950Z,80.70
2018-06-19T19:49:08.510Z,81.60
2018-06-19T19:51:37.086Z,83.40
2018-06-19T19:54:07.145Z,84.40
2018-06-19T19:56:40.939Z,83.60
2018-06-19T19:59:09.609Z,83.40
2018-06-19T20:01:38.152Z,83.50
2018-06-19T20:04:06.619Z,83.90
2018-06-19T20:06:35.476Z,84.50
2018-06-19T20:09:06.383Z,85.20
2018-06-19T20:11:35.058Z,87.40
2018-06-19T20:14:04.294Z,87.90
2018-06-19T20:16:32.849Z,88.10
2018-06-19T20:19:01.361Z,87.90
2018-06-19T20:21:29.881Z,88.10
2018-06-19T20:23:58.475Z,89.50
2018-06-19T20:26:26.983Z,89.60
2018-06-19T20:28:55.699Z,90.10
2018-06-19T20:31:24.194Z,90.40
2018-06-19T20:33:52.822Z,90.70
2018-06-19T20:36:21.332Z,91.00
2018-06-19T20:38:50.012Z,91.10
2018-06-19T20:41:18.549Z,90.60
2018-06-19T20:43:47.099Z,90.90
2018-06-19T20:46:17.366Z,90.80
2018-06-19T20:48:46.008Z,90.60
2018-06-19T20:58:16.463Z,91.00
2018-06-19T21:00:44.947Z,91.30
2018-06-19T21:03:13.483Z,92.20
2018-06-19T21:05:41.991Z,92.60
2018-06-19T21:08:10.456Z,92.70
2018-06-19T21:10:39.819Z,93.10
2018-06-19T21:13:08.319Z,94.00
2018-06-19T21:15:36.892Z,94.40
2018-06-19T21:18:05.439Z,94.40
2018-06-19T21:20:34.418Z,94.60
2018-06-19T21:23:02.895Z,94.80
2018-06-19T21:25:31.352Z,94.90
2018-06-19T21:27:59.875Z,95.20
2018-06-19T21:30:28.378Z,95.10
2018-06-19T21:32:56.863Z,95.40
2018-06-19T21:35:25.355Z,95.90
2018-06-19T21:37:54.222Z,96.00
2018-06-19T21:40:22.716Z,96.40
2018-06-19T21:42:51.575Z,96.00
2018-06-19T21:45:20.099Z,96.20
2018-06-19T21:47:48.638Z,96.20
2018-06-19T21:50:18.698Z,96.40
2018-06-19T21:52:47.206Z,96.70
2018-06-19T21:55:17.392Z,96.80
2018-06-19T21:57:46.033Z,97.10
2018-06-19T22:11:14.674Z,97.70
2018-06-19T22:13:44.159Z,98.90
2018-06-19T22:16:12.931Z,98.50
2018-06-19T22:18:41.522Z,98.70
2018-06-19T22:21:10.029Z,98.80
2018-06-19T22:23:38.622Z,98.90
2018-06-19T22:26:07.099Z,98.80
2018-06-19T22:28:35.763Z,99.10
2018-06-19T22:31:04.906Z,98.90
2018-06-19T22:33:33.382Z,99.00
2018-06-19T22:36:01.864Z,99.10
2018-06-19T22:38:30.448Z,99.00
2018-06-19T22:40:58.886Z,99.10
2018-06-19T22:43:27.372Z,99.10
2018-06-19T22:45:55.847Z,99.50
2018-06-19T22:48:24.541Z,99.60
2018-06-19T22:50:53.026Z,99.40
2018-06-19T22:53:21.729Z,99.70
2018-06-19T22:55:50.895Z,99.60
2018-06-19T22:58:19.447Z,99.50
2018-06-19T23:00:47.963Z,99.90
2018-06-19T23:03:17.439Z,99.90
2018-06-19T23:05:45.919Z,99.90
2018-06-19T23:14:25.973Z,99.90
2018-06-19T23:16:54.918Z,99.90
2018-06-19T23:19:23.408Z,99.90
2018-06-19T23:21:51.941Z,99.90
2018-06-19T23:24:20.427Z,99.90
2018-06-19T23:26:48.931Z,99.90
2018-06-19T23:29:17.468Z,99.90
2018-06-19T23:31:45.972Z,99.90
2018-06-19T23:53:36.517Z,99.90
2018-06-19T23:58:41.887Z,99.90
